createdAt,value
2022-08-30T00:01:34.359Z,100302.86
2022-08-30T00:04:02.607Z,100301.88
2022-08-30T00:06:30.387Z,100302.52
2022-08-30T00:08:59.657Z,100305.16
2022-08-30T00:11:28.273Z,100307.88
2022-08-30T00:13:57.914Z,100309.36
2022-08-30T00:16:26.589Z,100309.48
2022-08-30T00:18:55.110Z,100313.03
2022-08-30T00:21:24.376Z,100313.36
2022-08-30T00:23:52.593Z,100313.52
2022-08-30T00:26:20.254Z,100314.52
2022-08-30T00:28:47.839Z,100312.19
2022-08-30T00:31:15.790Z,100314.23
2022-08-30T00:33:43.779Z,100318.54
2022-08-30T00:36:11.514Z,100319.60
2022-08-30T00:38:39.171Z,100317.30
2022-08-30T00:41:07.168Z,100313.71
2022-08-30T00:43:36.656Z,100317.66
2022-08-30T00:46:08.520Z,100313.92
2022-08-30T00:48:41.149Z,100315.23
2022-08-30T00:51:12.640Z,100319.04
2022-08-30T00:53:44.161Z,100317.48
2022-08-30T00:56:12.409Z,100318.41
2022-08-30T00:58:45.357Z,100321.61
2022-08-30T01:01:13.824Z,100322.23
2022-08-30T01:03:43.416Z,100329.30
2022-08-30T01:06:12.415Z,100327.33
2022-08-30T01:08:40.227Z,100328.25
2022-08-30T01:11:08.904Z,100328.34
2022-08-30T01:13:36.557Z,100328.62
2022-08-30T01:16:05.152Z,100331.21
2022-08-30T01:18:32.906Z,100330.52
2022-08-30T01:21:14.160Z,100334.87
2022-08-30T01:23:44.589Z,100332.85
2022-08-30T01:26:14.505Z,100333.14
2022-08-30T01:28:48.102Z,100330.77
2022-08-30T01:31:16.118Z,100331.05
2022-08-30T01:33:43.897Z,100329.19
2022-08-30T01:36:13.685Z,100326.79
2022-08-30T01:38:50.744Z,100326.30
2022-08-30T01:41:25.387Z,100320.14
2022-08-30T01:43:56.071Z,100330.27
2022-08-30T01:46:26.573Z,100326.02
2022-08-30T01:48:56.649Z,100319.19
2022-08-30T01:51:27.390Z,100317.52
2022-08-30T01:53:56.285Z,100320.38
2022-08-30T01:56:25.701Z,100320.11
2022-08-30T01:58:57.258Z,100321.21
2022-08-30T02:01:29.483Z,100317.05
2022-08-30T02:04:00.599Z,100311.80
2022-08-30T02:06:28.717Z,100309.69
2022-08-30T02:08:56.550Z,100313.36
2022-08-30T02:11:24.302Z,100311.42
2022-08-30T02:13:52.057Z,100314.27
2022-08-30T02:16:22.958Z,100312.38
2022-08-30T02:18:53.102Z,100311.52
2022-08-30T02:21:21.174Z,100313.27
2022-08-30T02:23:49.375Z,100315.04
2022-08-30T02:26:17.592Z,100316.06
2022-08-30T02:28:50.321Z,100317.23
2022-08-30T02:31:20.788Z,100324.06
2022-08-30T02:33:51.543Z,100325.11
2022-08-30T02:36:20.878Z,100322.63
2022-08-30T02:38:50.496Z,100320.52
2022-08-30T02:41:19.286Z,100321.03
2022-08-30T02:43:47.154Z,100316.52
2022-08-30T02:46:15.405Z,100318.70
2022-08-30T02:48:44.355Z,100318.45
2022-08-30T02:51:13.845Z,100317.59
2022-08-30T02:53:43.808Z,100320.42
2022-08-30T02:56:13.595Z,100320.61
2022-08-30T02:58:42.445Z,100320.09
2022-08-30T03:01:13.751Z,100323.92
2022-08-30T03:03:44.083Z,100321.80
2022-08-30T03:06:12.179Z,100327.68
2022-08-30T03:08:40.543Z,100327.13
2022-08-30T03:11:08.624Z,100328.86
2022-08-30T03:13:36.505Z,100327.59
2022-08-30T03:16:04.469Z,100324.27
2022-08-30T03:18:33.478Z,100328.98
2022-08-30T03:21:01.171Z,100329.52
2022-08-30T03:23:28.793Z,100333.31
2022-08-30T03:25:57.387Z,100329.96
2022-08-30T03:28:25.019Z,100330.13
2022-08-30T03:30:52.775Z,100335.48
2022-08-30T03:33:20.428Z,100332.64
2022-08-30T03:35:49.686Z,100338.80
2022-08-30T03:38:17.382Z,100337.62
2022-08-30T03:40:45.113Z,100342.48
2022-08-30T03:43:12.987Z,100337.46
2022-08-30T03:45:41.239Z,100337.89
2022-08-30T03:48:09.009Z,100340.01
2022-08-30T03:50:36.859Z,100342.88
2022-08-30T03:53:04.599Z,100342.46
2022-08-30T03:55:32.242Z,100345.45
2022-08-30T03:57:59.888Z,100346.36
2022-08-30T04:00:28.011Z,100348.38
2022-08-30T04:02:55.640Z,100349.60
2022-08-30T04:05:23.237Z,100355.10
2022-08-30T04:07:50.971Z,100353.95
2022-08-30T04:10:21.126Z,100355.26
2022-08-30T04:12:50.543Z,100358.95
2022-08-30T04:15:19.749Z,100359.95
2022-08-30T04:17:47.424Z,100357.80
2022-08-30T04:20:15.483Z,100362.15
2022-08-30T04:22:43.227Z,100365.70
2022-08-30T04:25:15.393Z,100367.02
2022-08-30T04:27:45.527Z,100369.04
2022-08-30T04:30:15.315Z,100370.54
2022-08-30T04:32:43.670Z,100374.59
2022-08-30T04:35:13.147Z,100376.48
2022-08-30T04:37:41.165Z,100377.30
2022-08-30T04:40:09.789Z,100380.08
2022-08-30T04:42:37.869Z,100376.52
2022-08-30T04:45:09.474Z,100382.64
2022-08-30T04:47:39.038Z,100382.68
2022-08-30T04:50:08.555Z,100390.75
2022-08-30T04:52:36.172Z,100386.80
2022-08-30T04:55:04.853Z,100386.97
2022-08-30T04:57:32.825Z,100389.35
2022-08-30T05:00:00.884Z,100389.45
2022-08-30T05:02:28.753Z,100390.64
2022-08-30T05:05:11.407Z,100394.05
2022-08-30T05:07:41.959Z,100392.67
2022-08-30T05:10:11.453Z,100393.66
2022-08-30T05:12:40.422Z,100396.85
2022-08-30T05:15:09.095Z,100391.55
2022-08-30T05:17:40.881Z,100394.55
2022-08-30T05:20:11.123Z,100399.54
2022-08-30T05:22:49.809Z,100407.77
2022-08-30T05:25:24.981Z,100408.33
2022-08-30T05:27:53.175Z,100409.14
2022-08-30T05:30:22.328Z,100410.77
2022-08-30T05:32:50.898Z,100406.48
2022-08-30T05:35:24.939Z,100407.54
2022-08-30T05:37:54.122Z,100411.31
2022-08-30T05:40:22.453Z,100411.10
2022-08-30T05:42:50.708Z,100409.73
2022-08-30T05:45:19.538Z,100410.98
2022-08-30T05:47:47.751Z,100407.66
2022-08-30T05:50:15.482Z,100408.77
2022-08-30T05:52:44.880Z,100404.89
2022-08-30T05:55:13.358Z,100407.02
2022-08-30T05:57:41.773Z,100409.73
2022-08-30T06:00:14.081Z,100408.06
2022-08-30T06:02:42.417Z,100413.06
2022-08-30T06:05:14.335Z,100415.14
2022-08-30T06:07:43.431Z,100420.02
2022-08-30T06:10:12.322Z,100419.38
2022-08-30T06:12:40.634Z,100423.34
2022-08-30T06:15:08.950Z,100426.15
2022-08-30T06:17:39.566Z,100422.75
2022-08-30T06:20:08.963Z,100429.90
2022-08-30T06:22:38.570Z,100437.27
2022-08-30T06:25:07.142Z,100437.38
2022-08-30T06:27:34.833Z,100439.86
2022-08-30T06:30:03.025Z,100438.44
2022-08-30T06:32:30.667Z,100440.47
2022-08-30T06:34:58.476Z,100441.45
2022-08-30T06:37:30.025Z,100440.64
2022-08-30T06:39:59.340Z,100439.71
2022-08-30T06:42:31.986Z,100437.66
2022-08-30T06:45:02.300Z,100439.77
2022-08-30T06:47:30.752Z,100442.72
2022-08-30T06:49:58.842Z,100442.55
2022-08-30T06:52:26.675Z,100445.54
2022-08-30T06:54:58.159Z,100448.69
2022-08-30T06:57:26.695Z,100455.95
2022-08-30T06:59:58.303Z,100452.55
2022-08-30T07:02:26.606Z,100453.74
2022-08-30T07:04:54.557Z,100459.44
2022-08-30T07:07:23.011Z,100454.98
2022-08-30T07:09:50.803Z,100464.05
2022-08-30T07:12:18.532Z,100461.17
2022-08-30T07:14:46.891Z,100464.48
2022-08-30T07:17:34.019Z,100462.58
2022-08-30T07:20:04.419Z,100463.39
2022-08-30T07:22:34.860Z,100468.33
2022-08-30T07:25:02.805Z,100470.63
2022-08-30T07:27:31.315Z,100472.40
2022-08-30T07:30:04.952Z,100476.38
2022-08-30T07:33:07.690Z,100483.31
2022-08-30T07:35:46.243Z,100483.91
2022-08-30T07:38:25.996Z,100485.86
2022-08-30T07:40:59.154Z,100485.14
2022-08-30T07:43:38.104Z,100489.81
2022-08-30T07:46:13.925Z,100493.67
2022-08-30T07:49:01.836Z,100487.94
2022-08-30T07:51:37.716Z,100491.61
2022-08-30T07:54:07.023Z,100487.91
2022-08-30T07:56:38.257Z,100492.55
2022-08-30T07:59:08.659Z,100491.94
2022-08-30T08:01:37.298Z,100490.08
2022-08-30T08:04:05.846Z,100498.15
2022-08-30T08:06:43.861Z,100493.69
2022-08-30T08:09:13.876Z,100499.41
2022-08-30T08:11:43.218Z,100507.70
2022-08-30T08:14:11.723Z,100505.28
2022-08-30T08:16:42.699Z,100502.70
2022-08-30T08:19:12.263Z,100498.57
2022-08-30T08:26:38.760Z,100506.95
2022-08-30T08:29:20.575Z,100515.66
2022-08-30T08:31:50.861Z,100514.35
2022-08-30T08:34:24.700Z,100506.57
2022-08-30T08:37:02.996Z,100510.00
2022-08-30T08:39:46.360Z,100510.32
2022-08-30T08:42:42.231Z,100515.84
2022-08-30T08:45:51.782Z,100512.76
2022-08-30T08:48:59.554Z,100513.25
2022-08-30T08:51:55.215Z,100521.98
2022-08-30T08:54:44.704Z,100528.99
2022-08-30T08:57:17.719Z,100520.84
2022-08-30T08:59:55.089Z,100519.45
2022-08-30T09:02:29.540Z,100526.92
2022-08-30T09:05:02.580Z,100526.33
2022-08-30T09:07:36.785Z,100527.55
2022-08-30T09:10:06.196Z,100526.02
2022-08-30T09:12:34.115Z,100522.13
2022-08-30T09:15:14.690Z,100525.66
2022-08-30T09:17:49.959Z,100526.10
2022-08-30T09:20:30.889Z,100528.73
2022-08-30T09:23:11.585Z,100530.77
2022-08-30T09:26:05.365Z,100533.63
2022-08-30T09:28:35.385Z,100533.35
2022-08-30T09:31:18.597Z,100531.60
2022-08-30T09:34:15.816Z,100531.45
2022-08-30T09:36:52.174Z,100531.97
2022-08-30T09:39:41.506Z,100531.95
2022-08-30T09:42:28.723Z,100531.64
2022-08-30T09:45:10.392Z,100537.48
2022-08-30T09:47:41.697Z,100538.59
2022-08-30T09:50:19.722Z,100538.88
2022-08-30T09:53:09.891Z,100540.50
2022-08-30T09:55:52.657Z,100540.77
2022-08-30T09:58:39.194Z,100543.23
2022-08-30T10:01:16.730Z,100539.04
2022-08-30T10:03:56.626Z,100543.95
2022-08-30T10:06:43.084Z,100543.70
2022-08-30T10:09:29.196Z,100546.81
2022-08-30T10:12:13.949Z,100551.66
2022-08-30T10:15:02.223Z,100554.58
2022-08-30T10:17:49.057Z,100555.31
2022-08-30T10:20:35.676Z,100552.95
2022-08-30T10:23:30.354Z,100557.40
2022-08-30T10:26:14.176Z,100556.57
2022-08-30T10:28:57.374Z,100557.17
2022-08-30T10:31:38.378Z,100551.46
2022-08-30T10:34:13.755Z,100553.79
2022-08-30T10:36:48.405Z,100556.65
2022-08-30T10:39:24.609Z,100556.74
2022-08-30T10:42:33.830Z,100554.48
2022-08-30T10:45:10.322Z,100565.33
2022-08-30T10:47:56.818Z,100565.58
2022-08-30T10:50:31.847Z,100562.36
2022-08-30T10:53:12.913Z,100556.80
2022-08-30T10:56:00.266Z,100559.27
2022-08-30T10:58:31.431Z,100559.68
2022-08-30T11:01:17.872Z,100556.33
2022-08-30T11:04:02.101Z,100563.13
2022-08-30T11:06:45.903Z,100558.75
2022-08-30T11:09:16.537Z,100558.45
2022-08-30T11:11:50.297Z,100562.31
2022-08-30T11:14:19.940Z,100563.52
2022-08-30T11:16:56.364Z,100566.50
2022-08-30T11:19:32.250Z,100560.88
2022-08-30T11:22:21.599Z,100571.16
2022-08-30T11:25:21.158Z,100568.78
2022-08-30T11:27:58.760Z,100572.70
2022-08-30T11:30:27.058Z,100580.54
2022-08-30T11:33:11.244Z,100588.42
2022-08-30T11:35:46.030Z,100581.54
2022-08-30T11:38:26.199Z,100584.74
2022-08-30T11:40:58.552Z,100589.20
2022-08-30T11:43:42.115Z,100594.17
2022-08-30T11:46:19.033Z,100585.13
2022-08-30T11:48:54.475Z,100591.50
2022-08-30T11:52:23.540Z,100588.83
2022-08-30T11:55:15.352Z,100596.69
2022-08-30T11:58:11.489Z,100593.27
2022-08-30T12:00:48.985Z,100591.85
2022-08-30T12:03:21.936Z,100589.40
2022-08-30T12:05:54.664Z,100600.59
2022-08-30T12:08:28.172Z,100593.38
2022-08-30T12:10:59.783Z,100596.12
2022-08-30T12:13:37.760Z,100594.64
2022-08-30T12:16:16.286Z,100593.16
2022-08-30T12:19:00.887Z,100592.73
2022-08-30T12:21:44.873Z,100589.52
2022-08-30T12:24:36.555Z,100590.11
2022-08-30T12:27:24.211Z,100590.89
2022-08-30T12:30:01.918Z,100584.18
2022-08-30T12:32:30.452Z,100588.39
2022-08-30T12:35:04.502Z,100585.04
2022-08-30T12:37:38.518Z,100589.34
2022-08-30T12:40:13.115Z,100579.81
2022-08-30T12:42:49.601Z,100583.94
2022-08-30T12:45:23.744Z,100578.92
2022-08-30T12:47:58.452Z,100573.62
2022-08-30T12:50:53.551Z,100573.22
2022-08-30T12:53:34.389Z,100573.83
2022-08-30T12:56:13.316Z,100584.20
2022-08-30T12:58:43.395Z,100588.04
2022-08-30T13:01:12.978Z,100584.95
2022-08-30T13:03:41.844Z,100588.98
2022-08-30T13:06:10.023Z,100582.43
2022-08-30T13:08:51.656Z,100580.27
2022-08-30T13:11:19.914Z,100582.23
2022-08-30T13:13:52.356Z,100583.46
2022-08-30T13:16:36.602Z,100580.67
2022-08-30T13:19:36.980Z,100588.24
2022-08-30T13:22:05.561Z,100586.10
2022-08-30T13:24:33.163Z,100579.87
2022-08-30T13:27:09.564Z,100582.44
2022-08-30T13:29:37.209Z,100576.56
2022-08-30T13:32:05.051Z,100580.77
2022-08-30T13:34:32.969Z,100580.01
2022-08-30T13:37:01.757Z,100583.20
2022-08-30T13:39:29.741Z,100580.61
2022-08-30T13:42:31.814Z,100581.86
2022-08-30T13:44:45.032Z,100583.67
2022-08-30T13:47:34.955Z,100583.89
2022-08-30T13:50:05.117Z,100593.77
2022-08-30T13:52:32.882Z,100599.05
2022-08-30T13:55:00.513Z,100601.50
2022-08-30T14:00:19.948Z,100599.69
2022-08-30T14:02:55.003Z,100600.53
2022-08-30T14:11:06.413Z,100598.16
2022-08-30T14:13:34.150Z,100591.27
2022-08-30T14:18:53.983Z,100591.79
2022-08-30T14:21:24.738Z,100593.17
2022-08-30T14:23:53.927Z,100595.19
2022-08-30T14:26:26.753Z,100592.39
2022-08-30T14:29:02.478Z,100587.67
2022-08-30T14:31:32.660Z,100594.25
2022-08-30T14:34:04.212Z,100594.27
2022-08-30T14:36:34.589Z,100595.15
2022-08-30T14:39:06.233Z,100595.76
2022-08-30T14:41:43.656Z,100594.77
2022-08-30T14:44:13.895Z,100596.02
2022-08-30T14:46:42.658Z,100590.65
2022-08-30T14:49:12.539Z,100593.79
2022-08-30T14:51:40.930Z,100592.61
2022-08-30T14:54:09.593Z,100592.61
2022-08-30T14:56:40.213Z,100592.10
2022-08-30T14:59:08.980Z,100587.04
2022-08-30T15:01:39.190Z,100590.40
2022-08-30T15:04:08.577Z,100587.01
2022-08-30T15:06:38.429Z,100584.10
2022-08-30T15:09:08.819Z,100586.58
2022-08-30T15:11:38.097Z,100587.02
2022-08-30T15:14:06.733Z,100584.25
2022-08-30T15:16:37.131Z,100579.41
2022-08-30T15:19:08.574Z,100580.06
2022-08-30T15:21:46.141Z,100580.10
2022-08-30T15:24:18.176Z,100577.06
2022-08-30T15:26:46.096Z,100581.47
2022-08-30T15:29:16.369Z,100576.15
2022-08-30T15:31:45.485Z,100581.45
2022-08-30T15:34:20.069Z,100579.34
2022-08-30T15:36:49.125Z,100577.13
2022-08-30T15:39:19.257Z,100574.73
2022-08-30T15:41:54.664Z,100575.46
2022-08-30T15:44:25.533Z,100573.79
2022-08-30T15:46:53.390Z,100570.91
2022-08-30T15:49:23.886Z,100571.62
2022-08-30T15:51:54.202Z,100573.45
2022-08-30T15:54:23.875Z,100573.06
2022-08-30T15:56:58.894Z,100573.29
2022-08-30T15:59:28.922Z,100570.47
2022-08-30T16:01:57.858Z,100573.27
2022-08-30T16:04:25.824Z,100568.23
2022-08-30T16:06:53.777Z,100564.44
2022-08-30T16:09:22.747Z,100567.42
2022-08-30T16:11:50.734Z,100567.27
2022-08-30T16:14:18.408Z,100569.34
2022-08-30T16:16:46.449Z,100568.15
2022-08-30T16:19:14.495Z,100567.52
2022-08-30T16:21:43.276Z,100568.17
2022-08-30T16:24:13.469Z,100568.13
2022-08-30T16:26:43.240Z,100564.70
2022-08-30T16:29:13.134Z,100563.89
2022-08-30T16:31:45.728Z,100565.73
2022-08-30T16:34:17.950Z,100567.30
2022-08-30T16:36:46.249Z,100564.23
2022-08-30T16:39:15.284Z,100563.69
2022-08-30T16:41:44.796Z,100562.88
2022-08-30T16:44:16.038Z,100560.88
2022-08-30T16:46:52.835Z,100563.86
2022-08-30T16:49:25.552Z,100562.83
2022-08-30T16:51:53.884Z,100557.67
2022-08-30T16:54:22.870Z,100557.14
2022-08-30T16:56:51.225Z,100565.91
2022-08-30T16:59:19.198Z,100563.77
2022-08-30T17:01:48.202Z,100562.42
2022-08-30T17:04:18.391Z,100561.02
2022-08-30T17:06:49.565Z,100561.61
2022-08-30T17:09:19.173Z,100561.77
2022-08-30T17:11:47.450Z,100562.24
2022-08-30T17:14:17.829Z,100561.77
2022-08-30T17:16:51.001Z,100566.19
2022-08-30T17:19:18.701Z,100567.66
2022-08-30T17:21:56.118Z,100567.81
2022-08-30T17:24:24.649Z,100567.55
2022-08-30T17:26:54.406Z,100568.19
2022-08-30T17:29:22.076Z,100569.98
2022-08-30T17:31:50.876Z,100571.05
2022-08-30T17:34:21.254Z,100570.46
2022-08-30T17:36:51.234Z,100573.66
2022-08-30T17:39:19.083Z,100573.64
2022-08-30T17:41:51.539Z,100577.38
2022-08-30T17:44:25.832Z,100574.52
2022-08-30T17:46:54.820Z,100584.48
2022-08-30T17:49:24.032Z,100585.08
2022-08-30T17:51:56.724Z,100589.63
2022-08-30T17:54:26.735Z,100591.40
2022-08-30T17:56:55.957Z,100594.38
2022-08-30T17:59:25.747Z,100595.67
2022-08-30T18:01:55.272Z,100595.36
2022-08-30T18:04:24.903Z,100597.57
2022-08-30T18:06:54.194Z,100597.84
2022-08-30T18:09:22.890Z,100598.59
2022-08-30T18:11:51.291Z,100603.52
2022-08-30T18:14:19.423Z,100604.32
2022-08-30T18:16:53.345Z,100607.40
2022-08-30T18:19:26.822Z,100606.13
2022-08-30T18:21:55.329Z,100610.02
2022-08-30T18:24:24.129Z,100610.19
2022-08-30T18:26:54.543Z,100609.35
2022-08-30T18:29:29.157Z,100614.93
2022-08-30T18:32:02.137Z,100614.59
2022-08-30T18:34:31.261Z,100612.74
2022-08-30T18:36:59.007Z,100616.00
2022-08-30T18:39:26.757Z,100618.27
2022-08-30T18:41:56.981Z,100614.59
2022-08-30T18:44:28.928Z,100615.33
2022-08-30T18:47:00.347Z,100614.52
2022-08-30T18:49:32.444Z,100614.55
2022-08-30T18:52:06.752Z,100614.39
2022-08-30T18:54:38.999Z,100615.68
2022-08-30T18:57:08.422Z,100617.73
2022-08-30T18:59:39.315Z,100614.81
2022-08-30T19:02:14.832Z,100617.52
2022-08-30T19:04:45.115Z,100621.34
2022-08-30T19:07:15.453Z,100622.76
2022-08-30T19:09:43.756Z,100624.48
2022-08-30T19:12:13.314Z,100627.03
2022-08-30T19:14:41.155Z,100627.31
2022-08-30T19:17:09.076Z,100629.95
2022-08-30T19:19:46.499Z,100629.34
2022-08-30T19:22:20.758Z,100629.81
2022-08-30T19:24:50.224Z,100631.94
2022-08-30T19:27:21.569Z,100634.73
2022-08-30T19:30:11.395Z,100633.95
2022-08-30T19:32:39.294Z,100635.51
2022-08-30T19:35:08.479Z,100634.35
2022-08-30T19:37:37.519Z,100633.46
2022-08-30T19:40:08.400Z,100633.31
2022-08-30T19:42:40.638Z,100635.63
2022-08-30T19:45:17.740Z,100632.28
2022-08-30T19:47:47.134Z,100637.11
2022-08-30T19:50:15.830Z,100633.11
2022-08-30T19:52:47.314Z,100633.43
2022-08-30T19:55:19.187Z,100631.94
2022-08-30T19:57:51.877Z,100632.42
2022-08-30T20:00:20.453Z,100634.56
2022-08-30T20:02:50.593Z,100633.10
2022-08-30T20:05:21.304Z,100638.61
2022-08-30T20:07:50.844Z,100634.48
2022-08-30T20:10:20.505Z,100635.95
2022-08-30T20:12:50.232Z,100633.32
2022-08-30T20:15:18.759Z,100633.04
2022-08-30T20:18:03.260Z,100628.91
2022-08-30T20:20:36.261Z,100629.04
2022-08-30T20:23:05.773Z,100622.68
2022-08-30T20:25:35.958Z,100626.61
2022-08-30T20:28:04.839Z,100632.00
2022-08-30T20:30:32.463Z,100630.77
2022-08-30T20:33:03.738Z,100633.57
2022-08-30T20:35:34.082Z,100633.95
2022-08-30T20:38:06.273Z,100632.73
2022-08-30T20:40:37.666Z,100632.35
2022-08-30T20:43:06.950Z,100632.14
2022-08-30T20:45:34.885Z,100637.36
2022-08-30T20:48:03.357Z,100640.98
2022-08-30T20:50:31.451Z,100639.52
2022-08-30T20:52:59.485Z,100637.33
2022-08-30T20:55:27.162Z,100642.23
2022-08-30T20:57:54.770Z,100642.85
2022-08-30T21:00:22.808Z,100638.84
2022-08-30T21:02:50.695Z,100645.70
2022-08-30T21:05:18.557Z,100640.38
2022-08-30T21:07:46.742Z,100644.65
2022-08-30T21:10:21.190Z,100644.59
2022-08-30T21:12:51.873Z,100645.11
2022-08-30T21:15:36.762Z,100648.30
2022-08-30T21:18:05.822Z,100652.45
2022-08-30T21:20:33.539Z,100652.89
2022-08-30T21:23:01.306Z,100657.77
2022-08-30T21:25:30.869Z,100656.45
2022-08-30T21:27:59.000Z,100656.61
2022-08-30T21:30:26.641Z,100651.77
2022-08-30T21:32:55.080Z,100652.30
2022-08-30T21:35:44.754Z,100654.60
2022-08-30T21:38:12.536Z,100654.88
2022-08-30T21:40:40.289Z,100654.41
2022-08-30T21:43:08.241Z,100653.59
2022-08-30T21:45:40.013Z,100653.58
2022-08-30T21:48:08.592Z,100651.55
2022-08-30T21:50:39.861Z,100653.02
2022-08-30T21:53:07.626Z,100648.77
2022-08-30T21:55:35.367Z,100646.05
2022-08-30T21:58:03.583Z,100643.11
2022-08-30T22:00:33.394Z,100640.56
2022-08-30T22:03:01.126Z,100639.29
2022-08-30T22:05:28.881Z,100638.58
2022-08-30T22:07:56.766Z,100638.67
2022-08-30T22:10:25.154Z,100641.31
2022-08-30T22:12:52.781Z,100639.17
2022-08-30T22:15:20.626Z,100639.91
2022-08-30T22:17:48.362Z,100639.59
2022-08-30T22:20:18.696Z,100638.02
2022-08-30T22:22:46.548Z,100644.03
2022-08-30T22:25:14.186Z,100645.97
2022-08-30T22:27:41.911Z,100640.75
2022-08-30T22:30:10.291Z,100644.69
2022-08-30T22:32:38.106Z,100643.52
2022-08-30T22:35:06.460Z,100639.37
2022-08-30T22:37:35.062Z,100641.07
2022-08-30T22:40:03.327Z,100637.79
2022-08-30T22:42:31.036Z,100636.45
2022-08-30T22:44:59.068Z,100636.21
2022-08-30T22:47:26.879Z,100638.21
2022-08-30T22:49:54.538Z,100639.80
2022-08-30T22:52:25.497Z,100639.98
2022-08-30T22:54:53.445Z,100645.02
2022-08-30T22:57:21.130Z,100642.26
2022-08-30T22:59:48.792Z,100642.17
2022-08-30T23:02:16.601Z,100640.02
2022-08-30T23:04:44.316Z,100641.36
2022-08-30T23:07:11.946Z,100638.24
2022-08-30T23:09:39.778Z,100639.45
2022-08-30T23:12:07.628Z,100640.22
2022-08-30T23:14:35.249Z,100640.57
2022-08-30T23:17:02.935Z,100643.36
2022-08-30T23:19:30.585Z,100646.80
2022-08-30T23:21:58.253Z,100648.48
2022-08-30T23:24:41.860Z,100647.73
2022-08-30T23:27:33.281Z,100647.88
2022-08-30T23:30:17.027Z,100645.89
2022-08-30T23:32:59.689Z,100645.48
2022-08-30T23:35:43.272Z,100644.86
2022-08-30T23:38:26.913Z,100647.86
2022-08-30T23:41:09.465Z,100645.52
2022-08-30T23:43:54.116Z,100645.20
2022-08-30T23:46:38.439Z,100643.36
2022-08-30T23:49:22.089Z,100644.31
2022-08-30T23:52:05.906Z,100642.82
2022-08-30T23:54:50.279Z,100646.20
2022-08-30T23:57:33.910Z,100648.95
